sensor_id;sensor_type;location;lat;lon;timestamp;P1;durP1;ratioP1;P2;durP2;ratioP2
14688;SDS011;7432;48.728;9.154;2024-03-02T00:00:22;16.03;;;14.33;;
14688;SDS011;7432;48.728;9.154;2024-03-02T00:02:51;14.70;;;13.30;;
14688;SDS011;7432;48.728;9.154;2024-03-02T00:05:18;15.37;;;13.87;;
14688;SDS011;7432;48.728;9.154;2024-03-02T00:07:46;15.40;;;13.90;;
14688;SDS011;7432;48.728;9.154;2024-03-02T00:10:19;16.53;;;14.83;;
14688;SDS011;7432;48.728;9.154;2024-03-02T00:12:48;15.23;;;13.80;;
14688;SDS011;7432;48.728;9.154;2024-03-02T00:15:28;14.83;;;13.43;;
14688;SDS011;7432;48.728;9.154;2024-03-02T00:18:07;15.47;;;14.00;;
14688;SDS011;7432;48.728;9.154;2024-03-02T00:20:36;15.30;;;13.93;;
14688;SDS011;7432;48.728;9.154;2024-03-02T00:23:03;15.63;;;14.23;;
14688;SDS011;7432;48.728;9.154;2024-03-02T00:25:35;16.07;;;14.47;;
14688;SDS011;7432;48.728;9.154;2024-03-02T00:28:04;14.73;;;13.37;;
14688;SDS011;7432;48.728;9.154;2024-03-02T00:30:51;14.77;;;13.37;;
14688;SDS011;7432;48.728;9.154;2024-03-02T00:33:22;15.77;;;14.27;;
14688;SDS011;7432;48.728;9.154;2024-03-02T00:35:50;16.40;;;14.70;;
14688;SDS011;7432;48.728;9.154;2024-03-02T00:38:16;15.93;;;14.33;;
14688;SDS011;7432;48.728;9.154;2024-03-02T00:40:43;15.70;;;14.20;;
14688;SDS011;7432;48.728;9.154;2024-03-02T00:43:11;16.57;;;15.03;;
14688;SDS011;7432;48.728;9.154;2024-03-02T00:46:04;14.57;;;13.30;;
14688;SDS011;7432;48.728;9.154;2024-03-02T00:48:32;14.57;;;13.13;;
14688;SDS011;7432;48.728;9.154;2024-03-02T00:51:01;14.77;;;13.47;;
14688;SDS011;7432;48.728;9.154;2024-03-02T00:53:28;15.10;;;13.60;;
14688;SDS011;7432;48.728;9.154;2024-03-02T00:55:56;14.20;;;12.87;;
14688;SDS011;7432;48.728;9.154;2024-03-02T00:58:23;14.60;;;13.20;;
14688;SDS011;7432;48.728;9.154;2024-03-02T01:00:49;15.63;;;14.07;;
14688;SDS011;7432;48.728;9.154;2024-03-02T01:03:16;14.30;;;13.00;;
14688;SDS011;7432;48.728;9.154;2024-03-02T01:05:45;14.97;;;13.57;;
14688;SDS011;7432;48.728;9.154;2024-03-02T01:08:11;14.80;;;13.50;;
14688;SDS011;7432;48.728;9.154;2024-03-02T01:10:38;15.87;;;14.37;;
14688;SDS011;7432;48.728;9.154;2024-03-02T01:13:04;15.20;;;13.80;;
14688;SDS011;7432;48.728;9.154;2024-03-02T01:15:31;15.90;;;14.30;;
14688;SDS011;7432;48.728;9.154;2024-03-02T01:17:58;14.87;;;13.37;;
14688;SDS011;7432;48.728;9.154;2024-03-02T01:20:24;15.13;;;13.73;;
14688;SDS011;7432;48.728;9.154;2024-03-02T01:22:52;15.07;;;13.67;;
14688;SDS011;7432;48.728;9.154;2024-03-02T01:25:18;14.50;;;13.10;;
14688;SDS011;7432;48.728;9.154;2024-03-02T01:27:45;14.47;;;13.17;;
14688;SDS011;7432;48.728;9.154;2024-03-02T01:30:11;15.23;;;13.87;;
14688;SDS011;7432;48.728;9.154;2024-03-02T01:32:38;14.87;;;13.03;;
14688;SDS011;7432;48.728;9.154;2024-03-02T01:35:04;14.90;;;13.40;;
14688;SDS011;7432;48.728;9.154;2024-03-02T01:37:32;14.80;;;13.40;;
14688;SDS011;7432;48.728;9.154;2024-03-02T01:39:59;15.27;;;13.83;;
14688;SDS011;7432;48.728;9.154;2024-03-02T01:42:26;14.77;;;13.47;;
14688;SDS011;7432;48.728;9.154;2024-03-02T01:44:52;14.93;;;13.63;;
14688;SDS011;7432;48.728;9.154;2024-03-02T01:47:18;15.70;;;14.30;;
14688;SDS011;7432;48.728;9.154;2024-03-02T01:49:45;15.03;;;13.63;;
14688;SDS011;7432;48.728;9.154;2024-03-02T01:52:11;16.10;;;14.60;;
14688;SDS011;7432;48.728;9.154;2024-03-02T01:54:37;15.53;;;14.13;;
14688;SDS011;7432;48.728;9.154;2024-03-02T01:57:05;14.97;;;13.67;;
14688;SDS011;7432;48.728;9.154;2024-03-02T01:59:32;14.97;;;13.43;;
14688;SDS011;7432;48.728;9.154;2024-03-02T02:01:58;15.47;;;14.07;;
14688;SDS011;7432;48.728;9.154;2024-03-02T02:04:24;16.17;;;14.80;;
14688;SDS011;7432;48.728;9.154;2024-03-02T02:06:52;15.47;;;14.07;;
14688;SDS011;7432;48.728;9.154;2024-03-02T02:09:19;15.20;;;13.87;;
14688;SDS011;7432;48.728;9.154;2024-03-02T02:11:45;14.53;;;13.33;;
14688;SDS011;7432;48.728;9.154;2024-03-02T02:14:13;15.63;;;14.13;;
14688;SDS011;7432;48.728;9.154;2024-03-02T02:16:39;15.53;;;14.23;;
14688;SDS011;7432;48.728;9.154;2024-03-02T02:19:06;15.20;;;13.90;;
14688;SDS011;7432;48.728;9.154;2024-03-02T02:21:34;15.50;;;13.90;;
14688;SDS011;7432;48.728;9.154;2024-03-02T02:24:00;15.87;;;14.43;;
14688;SDS011;7432;48.728;9.154;2024-03-02T02:26:28;15.83;;;14.23;;
14688;SDS011;7432;48.728;9.154;2024-03-02T02:28:54;15.40;;;13.83;;
14688;SDS011;7432;48.728;9.154;2024-03-02T02:31:21;16.03;;;14.53;;
14688;SDS011;7432;48.728;9.154;2024-03-02T02:33:47;15.83;;;14.33;;
14688;SDS011;7432;48.728;9.154;2024-03-02T02:36:14;15.70;;;14.10;;
14688;SDS011;7432;48.728;9.154;2024-03-02T02:38:42;16.40;;;14.90;;
14688;SDS011;7432;48.728;9.154;2024-03-02T02:41:11;15.23;;;13.93;;
14688;SDS011;7432;48.728;9.154;2024-03-02T02:43:37;16.23;;;14.73;;
14688;SDS011;7432;48.728;9.154;2024-03-02T02:46:04;15.57;;;14.10;;
14688;SDS011;7432;48.728;9.154;2024-03-02T02:48:31;16.47;;;14.97;;
14688;SDS011;7432;48.728;9.154;2024-03-02T02:50:57;15.80;;;14.30;;
14688;SDS011;7432;48.728;9.154;2024-03-02T02:53:24;16.23;;;14.73;;
14688;SDS011;7432;48.728;9.154;2024-03-02T02:55:51;17.13;;;15.43;;
14688;SDS011;7432;48.728;9.154;2024-03-02T02:58:18;16.53;;;14.93;;
14688;SDS011;7432;48.728;9.154;2024-03-02T03:00:44;16.47;;;14.90;;
14688;SDS011;7432;48.728;9.154;2024-03-02T03:03:10;17.47;;;15.77;;
14688;SDS011;7432;48.728;9.154;2024-03-02T03:05:37;15.53;;;14.03;;
14688;SDS011;7432;48.728;9.154;2024-03-02T03:08:03;16.00;;;14.50;;
14688;SDS011;7432;48.728;9.154;2024-03-02T03:10:30;16.50;;;15.10;;
14688;SDS011;7432;48.728;9.154;2024-03-02T03:12:57;15.83;;;14.30;;
14688;SDS011;7432;48.728;9.154;2024-03-02T03:15:24;16.33;;;14.83;;
14688;SDS011;7432;48.728;9.154;2024-03-02T03:17:50;15.83;;;14.23;;
14688;SDS011;7432;48.728;9.154;2024-03-02T03:20:17;15.30;;;13.80;;
14688;SDS011;7432;48.728;9.154;2024-03-02T03:22:43;17.17;;;15.40;;
14688;SDS011;7432;48.728;9.154;2024-03-02T03:25:09;16.40;;;14.80;;
14688;SDS011;7432;48.728;9.154;2024-03-02T03:27:36;16.90;;;15.40;;
14688;SDS011;7432;48.728;9.154;2024-03-02T03:30:04;16.30;;;14.60;;
14688;SDS011;7432;48.728;9.154;2024-03-02T03:32:32;17.27;;;15.67;;
14688;SDS011;7432;48.728;9.154;2024-03-02T03:34:58;17.20;;;15.40;;
14688;SDS011;7432;48.728;9.154;2024-03-02T03:37:24;16.87;;;15.17;;
14688;SDS011;7432;48.728;9.154;2024-03-02T03:39:57;17.50;;;15.80;;
14688;SDS011;7432;48.728;9.154;2024-03-02T03:42:24;16.57;;;15.03;;
14688;SDS011;7432;48.728;9.154;2024-03-02T03:44:50;16.77;;;15.17;;
14688;SDS011;7432;48.728;9.154;2024-03-02T03:47:18;18.30;;;16.40;;
14688;SDS011;7432;48.728;9.154;2024-03-02T03:49:45;23.93;;;15.90;;
14688;SDS011;7432;48.728;9.154;2024-03-02T03:52:11;18.47;;;15.77;;
14688;SDS011;7432;48.728;9.154;2024-03-02T03:54:37;17.43;;;15.73;;
14688;SDS011;7432;48.728;9.154;2024-03-02T03:57:04;18.50;;;15.50;;
14688;SDS011;7432;48.728;9.154;2024-03-02T03:59:30;17.43;;;15.73;;
14688;SDS011;7432;48.728;9.154;2024-03-02T04:01:57;16.50;;;14.57;;
14688;SDS011;7432;48.728;9.154;2024-03-02T04:04:24;17.07;;;15.30;;
14688;SDS011;7432;48.728;9.154;2024-03-02T04:06:51;17.57;;;15.87;;
14688;SDS011;7432;48.728;9.154;2024-03-02T04:09:17;16.93;;;15.33;;
14688;SDS011;7432;48.728;9.154;2024-03-02T04:11:43;17.00;;;15.30;;
14688;SDS011;7432;48.728;9.154;2024-03-02T04:14:10;16.90;;;15.20;;
14688;SDS011;7432;48.728;9.154;2024-03-02T04:16:37;18.13;;;16.30;;
14688;SDS011;7432;48.728;9.154;2024-03-02T04:19:04;17.83;;;16.03;;
14688;SDS011;7432;48.728;9.154;2024-03-02T04:21:31;16.87;;;15.27;;
14688;SDS011;7432;48.728;9.154;2024-03-02T04:23:58;17.73;;;15.77;;
14688;SDS011;7432;48.728;9.154;2024-03-02T04:26:24;18.80;;;16.90;;
14688;SDS011;7432;48.728;9.154;2024-03-02T04:28:50;18.77;;;16.87;;
14688;SDS011;7432;48.728;9.154;2024-03-02T04:31:17;16.97;;;15.13;;
14688;SDS011;7432;48.728;9.154;2024-03-02T04:33:43;17.53;;;15.87;;
14688;SDS011;7432;48.728;9.154;2024-03-02T04:36:10;17.60;;;15.80;;
14688;SDS011;7432;48.728;9.154;2024-03-02T04:38:37;17.77;;;15.90;;
14688;SDS011;7432;48.728;9.154;2024-03-02T04:41:04;17.03;;;15.37;;
14688;SDS011;7432;48.728;9.154;2024-03-02T04:43:32;18.27;;;15.93;;
14688;SDS011;7432;48.728;9.154;2024-03-02T04:45:58;17.57;;;15.90;;
14688;SDS011;7432;48.728;9.154;2024-03-02T04:48:25;18.87;;;16.97;;
14688;SDS011;7432;48.728;9.154;2024-03-02T04:50:51;17.83;;;16.13;;
14688;SDS011;7432;48.728;9.154;2024-03-02T04:53:17;17.87;;;15.97;;
14688;SDS011;7432;48.728;9.154;2024-03-02T04:55:45;19.23;;;15.93;;
14688;SDS011;7432;48.728;9.154;2024-03-02T04:58:34;17.77;;;16.03;;
14688;SDS011;7432;48.728;9.154;2024-03-02T05:01:01;18.87;;;16.87;;
14688;SDS011;7432;48.728;9.154;2024-03-02T05:03:27;17.37;;;15.67;;
14688;SDS011;7432;48.728;9.154;2024-03-02T05:05:54;17.93;;;16.03;;
14688;SDS011;7432;48.728;9.154;2024-03-02T05:08:21;17.17;;;15.50;;
14688;SDS011;7432;48.728;9.154;2024-03-02T05:10:48;19.03;;;17.07;;
14688;SDS011;7432;48.728;9.154;2024-03-02T05:13:15;18.87;;;16.47;;
14688;SDS011;7432;48.728;9.154;2024-03-02T05:15:42;19.23;;;17.03;;
14688;SDS011;7432;48.728;9.154;2024-03-02T05:18:09;17.43;;;15.63;;
14688;SDS011;7432;48.728;9.154;2024-03-02T05:20:35;18.70;;;16.70;;
14688;SDS011;7432;48.728;9.154;2024-03-02T05:23:02;19.63;;;17.50;;
14688;SDS011;7432;48.728;9.154;2024-03-02T05:25:28;18.63;;;15.40;;
14688;SDS011;7432;48.728;9.154;2024-03-02T05:27:56;19.03;;;17.03;;
14688;SDS011;7432;48.728;9.154;2024-03-02T05:30:22;18.50;;;16.50;;
14688;SDS011;7432;48.728;9.154;2024-03-02T05:32:51;19.90;;;17.57;;
14688;SDS011;7432;48.728;9.154;2024-03-02T05:35:17;20.43;;;17.97;;
14688;SDS011;7432;48.728;9.154;2024-03-02T05:37:43;20.67;;;18.47;;
14688;SDS011;7432;48.728;9.154;2024-03-02T05:40:10;21.67;;;18.80;;
14688;SDS011;7432;48.728;9.154;2024-03-02T05:42:38;20.97;;;18.67;;
14688;SDS011;7432;48.728;9.154;2024-03-02T05:45:07;20.47;;;18.07;;
14688;SDS011;7432;48.728;9.154;2024-03-02T05:47:34;21.40;;;19.10;;
14688;SDS011;7432;48.728;9.154;2024-03-02T05:50:00;22.50;;;18.17;;
14688;SDS011;7432;48.728;9.154;2024-03-02T05:52:28;20.27;;;17.70;;
14688;SDS011;7432;48.728;9.154;2024-03-02T05:54:55;19.93;;;17.83;;
14688;SDS011;7432;48.728;9.154;2024-03-02T05:57:21;19.93;;;17.93;;
14688;SDS011;7432;48.728;9.154;2024-03-02T06:00:11;19.60;;;17.50;;
14688;SDS011;7432;48.728;9.154;2024-03-02T06:02:41;19.10;;;16.83;;
14688;SDS011;7432;48.728;9.154;2024-03-02T06:05:07;19.77;;;17.77;;
14688;SDS011;7432;48.728;9.154;2024-03-02T06:07:34;19.20;;;17.23;;
14688;SDS011;7432;48.728;9.154;2024-03-02T06:10:01;20.17;;;17.27;;
14688;SDS011;7432;48.728;9.154;2024-03-02T06:12:27;19.07;;;17.13;;
14688;SDS011;7432;48.728;9.154;2024-03-02T06:14:53;19.23;;;16.73;;
14688;SDS011;7432;48.728;9.154;2024-03-02T06:17:21;19.57;;;17.43;;
14688;SDS011;7432;48.728;9.154;2024-03-02T06:19:47;18.97;;;17.00;;
14688;SDS011;7432;48.728;9.154;2024-03-02T06:22:14;20.17;;;17.47;;
14688;SDS011;7432;48.728;9.154;2024-03-02T06:24:40;19.50;;;16.77;;
14688;SDS011;7432;48.728;9.154;2024-03-02T06:27:07;19.80;;;17.57;;
14688;SDS011;7432;48.728;9.154;2024-03-02T06:29:33;18.00;;;16.10;;
14688;SDS011;7432;48.728;9.154;2024-03-02T06:32:00;19.63;;;17.33;;
14688;SDS011;7432;48.728;9.154;2024-03-02T06:34:27;19.47;;;17.50;;
14688;SDS011;7432;48.728;9.154;2024-03-02T06:36:54;18.07;;;16.17;;
14688;SDS011;7432;48.728;9.154;2024-03-02T06:39:20;19.93;;;17.63;;
14688;SDS011;7432;48.728;9.154;2024-03-02T06:41:47;21.37;;;18.40;;
14688;SDS011;7432;48.728;9.154;2024-03-02T06:44:13;18.83;;;16.83;;
14688;SDS011;7432;48.728;9.154;2024-03-02T06:46:39;20.43;;;18.17;;
14688;SDS011;7432;48.728;9.154;2024-03-02T06:49:06;18.97;;;16.97;;
14688;SDS011;7432;48.728;9.154;2024-03-02T06:51:33;20.43;;;18.13;;
14688;SDS011;7432;48.728;9.154;2024-03-02T06:54:00;21.17;;;18.10;;
14688;SDS011;7432;48.728;9.154;2024-03-02T06:56:26;20.60;;;18.40;;
14688;SDS011;7432;48.728;9.154;2024-03-02T06:58:53;19.57;;;17.57;;
14688;SDS011;7432;48.728;9.154;2024-03-02T07:01:19;18.37;;;16.27;;
14688;SDS011;7432;48.728;9.154;2024-03-02T07:03:45;20.93;;;17.67;;
14688;SDS011;7432;48.728;9.154;2024-03-02T07:06:12;17.57;;;15.67;;
14688;SDS011;7432;48.728;9.154;2024-03-02T07:08:39;17.23;;;15.57;;
14688;SDS011;7432;48.728;9.154;2024-03-02T07:11:06;17.37;;;15.67;;
14688;SDS011;7432;48.728;9.154;2024-03-02T07:13:32;17.33;;;15.63;;
14688;SDS011;7432;48.728;9.154;2024-03-02T07:15:59;16.87;;;15.07;;
14688;SDS011;7432;48.728;9.154;2024-03-02T07:18:47;16.07;;;14.50;;
14688;SDS011;7432;48.728;9.154;2024-03-02T07:21:16;16.03;;;14.43;;
14688;SDS011;7432;48.728;9.154;2024-03-02T07:23:44;15.47;;;14.00;;
14688;SDS011;7432;48.728;9.154;2024-03-02T07:26:10;15.70;;;14.27;;
14688;SDS011;7432;48.728;9.154;2024-03-02T07:28:37;14.90;;;13.50;;
14688;SDS011;7432;48.728;9.154;2024-03-02T07:31:04;16.03;;;14.53;;
14688;SDS011;7432;48.728;9.154;2024-03-02T07:33:31;14.10;;;12.80;;
14688;SDS011;7432;48.728;9.154;2024-03-02T07:35:59;14.20;;;13.00;;
14688;SDS011;7432;48.728;9.154;2024-03-02T07:38:26;14.97;;;13.53;;
14688;SDS011;7432;48.728;9.154;2024-03-02T07:40:55;14.07;;;12.87;;
14688;SDS011;7432;48.728;9.154;2024-03-02T07:43:21;14.60;;;13.30;;
14688;SDS011;7432;48.728;9.154;2024-03-02T07:45:48;14.03;;;12.90;;
14688;SDS011;7432;48.728;9.154;2024-03-02T07:48:14;14.00;;;12.80;;
14688;SDS011;7432;48.728;9.154;2024-03-02T07:50:41;14.27;;;12.97;;
14688;SDS011;7432;48.728;9.154;2024-03-02T07:53:08;14.27;;;12.97;;
14688;SDS011;7432;48.728;9.154;2024-03-02T07:55:34;13.97;;;12.77;;
14688;SDS011;7432;48.728;9.154;2024-03-02T07:58:02;15.10;;;13.90;;
14688;SDS011;7432;48.728;9.154;2024-03-02T08:00:28;14.10;;;13.00;;
14688;SDS011;7432;48.728;9.154;2024-03-02T08:02:55;14.20;;;13.03;;
14688;SDS011;7432;48.728;9.154;2024-03-02T08:05:22;14.87;;;13.57;;
14688;SDS011;7432;48.728;9.154;2024-03-02T08:07:48;13.47;;;12.27;;
14688;SDS011;7432;48.728;9.154;2024-03-02T08:10:17;15.07;;;13.63;;
14688;SDS011;7432;48.728;9.154;2024-03-02T08:12:44;14.57;;;13.37;;
14688;SDS011;7432;48.728;9.154;2024-03-02T08:15:12;14.87;;;13.57;;
14688;SDS011;7432;48.728;9.154;2024-03-02T08:17:38;14.07;;;12.87;;
14688;SDS011;7432;48.728;9.154;2024-03-02T08:20:10;13.70;;;12.60;;
14688;SDS011;7432;48.728;9.154;2024-03-02T08:22:37;14.03;;;12.93;;
14688;SDS011;7432;48.728;9.154;2024-03-02T08:25:04;13.40;;;12.30;;
14688;SDS011;7432;48.728;9.154;2024-03-02T08:27:30;14.93;;;13.63;;
14688;SDS011;7432;48.728;9.154;2024-03-02T08:29:57;12.60;;;11.70;;
14688;SDS011;7432;48.728;9.154;2024-03-02T08:32:25;14.57;;;13.30;;
14688;SDS011;7432;48.728;9.154;2024-03-02T08:34:51;12.70;;;11.77;;
14688;SDS011;7432;48.728;9.154;2024-03-02T08:37:18;13.10;;;12.18;;
14688;SDS011;7432;48.728;9.154;2024-03-02T08:39:44;14.15;;;13.18;;
14688;SDS011;7432;48.728;9.154;2024-03-02T08:42:11;14.65;;;13.55;;
14688;SDS011;7432;48.728;9.154;2024-03-02T08:44:37;13.85;;;12.95;;
14688;SDS011;7432;48.728;9.154;2024-03-02T08:47:04;14.25;;;13.30;;
14688;SDS011;7432;48.728;9.154;2024-03-02T08:49:32;14.10;;;13.15;;
14688;SDS011;7432;48.728;9.154;2024-03-02T08:51:58;15.07;;;14.07;;
14688;SDS011;7432;48.728;9.154;2024-03-02T08:54:24;14.83;;;13.93;;
14688;SDS011;7432;48.728;9.154;2024-03-02T08:56:51;15.02;;;14.02;;
14688;SDS011;7432;48.728;9.154;2024-03-02T08:59:17;14.07;;;13.18;;
14688;SDS011;7432;48.728;9.154;2024-03-02T09:01:43;13.98;;;12.82;;
14688;SDS011;7432;48.728;9.154;2024-03-02T09:04:10;13.70;;;12.70;;
14688;SDS011;7432;48.728;9.154;2024-03-02T09:06:38;13.10;;;12.30;;
14688;SDS011;7432;48.728;9.154;2024-03-02T09:09:04;14.57;;;13.68;;
14688;SDS011;7432;48.728;9.154;2024-03-02T09:11:31;15.07;;;14.10;;
14688;SDS011;7432;48.728;9.154;2024-03-02T09:13:58;14.45;;;13.40;;
14688;SDS011;7432;48.728;9.154;2024-03-02T09:16:24;14.00;;;13.20;;
14688;SDS011;7432;48.728;9.154;2024-03-02T09:18:55;14.32;;;13.32;;
14688;SDS011;7432;48.728;9.154;2024-03-02T09:21:21;13.43;;;12.63;;
14688;SDS011;7432;48.728;9.154;2024-03-02T09:23:50;13.82;;;12.82;;
14688;SDS011;7432;48.728;9.154;2024-03-02T09:26:16;13.15;;;12.35;;
14688;SDS011;7432;48.728;9.154;2024-03-02T09:28:44;13.18;;;12.38;;
14688;SDS011;7432;48.728;9.154;2024-03-02T09:31:11;13.60;;;12.80;;
14688;SDS011;7432;48.728;9.154;2024-03-02T09:33:38;13.85;;;13.05;;
14688;SDS011;7432;48.728;9.154;2024-03-02T09:36:05;13.75;;;12.85;;
14688;SDS011;7432;48.728;9.154;2024-03-02T09:38:31;13.65;;;12.80;;
14688;SDS011;7432;48.728;9.154;2024-03-02T09:40:59;13.27;;;12.48;;
14688;SDS011;7432;48.728;9.154;2024-03-02T09:43:26;13.00;;;12.20;;
14688;SDS011;7432;48.728;9.154;2024-03-02T09:45:53;12.68;;;11.77;;
14688;SDS011;7432;48.728;9.154;2024-03-02T09:48:19;12.90;;;12.10;;
14688;SDS011;7432;48.728;9.154;2024-03-02T09:50:46;12.70;;;11.90;;
14688;SDS011;7432;48.728;9.154;2024-03-02T09:53:12;12.37;;;11.57;;
14688;SDS011;7432;48.728;9.154;2024-03-02T09:55:40;12.20;;;11.40;;
14688;SDS011;7432;48.728;9.154;2024-03-02T09:58:10;12.63;;;11.83;;
14688;SDS011;7432;48.728;9.154;2024-03-02T10:00:37;13.87;;;12.77;;
14688;SDS011;7432;48.728;9.154;2024-03-02T10:03:03;12.87;;;12.07;;
14688;SDS011;7432;48.728;9.154;2024-03-02T10:05:31;13.77;;;12.77;;
14688;SDS011;7432;48.728;9.154;2024-03-02T10:08:00;12.60;;;11.80;;
14688;SDS011;7432;48.728;9.154;2024-03-02T10:10:34;12.43;;;11.63;;
14688;SDS011;7432;48.728;9.154;2024-03-02T10:13:04;14.00;;;12.73;;
14688;SDS011;7432;48.728;9.154;2024-03-02T10:15:33;12.77;;;11.97;;
14688;SDS011;7432;48.728;9.154;2024-03-02T10:17:59;12.73;;;11.93;;
14688;SDS011;7432;48.728;9.154;2024-03-02T10:20:26;12.20;;;11.40;;
14688;SDS011;7432;48.728;9.154;2024-03-02T10:22:54;13.10;;;12.20;;
14688;SDS011;7432;48.728;9.154;2024-03-02T10:25:30;12.43;;;11.63;;
14688;SDS011;7432;48.728;9.154;2024-03-02T10:27:57;12.37;;;11.37;;
14688;SDS011;7432;48.728;9.154;2024-03-02T10:30:24;11.17;;;10.47;;
14688;SDS011;7432;48.728;9.154;2024-03-02T10:32:52;12.20;;;11.40;;
14688;SDS011;7432;48.728;9.154;2024-03-02T10:35:19;11.90;;;11.10;;
14688;SDS011;7432;48.728;9.154;2024-03-02T10:37:46;12.20;;;11.37;;
14688;SDS011;7432;48.728;9.154;2024-03-02T10:40:13;11.67;;;10.97;;
14688;SDS011;7432;48.728;9.154;2024-03-02T10:42:40;11.67;;;10.90;;
14688;SDS011;7432;48.728;9.154;2024-03-02T10:45:08;11.70;;;11.00;;
14688;SDS011;7432;48.728;9.154;2024-03-02T10:47:36;11.50;;;10.80;;
14688;SDS011;7432;48.728;9.154;2024-03-02T10:50:05;11.77;;;10.97;;
14688;SDS011;7432;48.728;9.154;2024-03-02T10:52:34;11.10;;;10.40;;
14688;SDS011;7432;48.728;9.154;2024-03-02T10:55:00;11.07;;;10.37;;
14688;SDS011;7432;48.728;9.154;2024-03-02T10:57:29;10.83;;;10.13;;
14688;SDS011;7432;48.728;9.154;2024-03-02T11:00:02;10.83;;;10.07;;
14688;SDS011;7432;48.728;9.154;2024-03-02T11:02:32;12.30;;;11.40;;
14688;SDS011;7432;48.728;9.154;2024-03-02T11:05:02;11.40;;;10.60;;
14688;SDS011;7432;48.728;9.154;2024-03-02T11:07:35;12.20;;;11.10;;
14688;SDS011;7432;48.728;9.154;2024-03-02T11:10:03;12.13;;;11.30;;
14688;SDS011;7432;48.728;9.154;2024-03-02T11:12:35;11.53;;;10.73;;
14688;SDS011;7432;48.728;9.154;2024-03-02T11:15:05;10.83;;;10.10;;
14688;SDS011;7432;48.728;9.154;2024-03-02T11:17:36;10.87;;;10.17;;
14688;SDS011;7432;48.728;9.154;2024-03-02T11:20:07;11.23;;;10.33;;
14688;SDS011;7432;48.728;9.154;2024-03-02T11:22:35;11.27;;;10.47;;
14688;SDS011;7432;48.728;9.154;2024-03-02T11:25:04;10.67;;;9.97;;
14688;SDS011;7432;48.728;9.154;2024-03-02T11:33:16;10.27;;;9.67;;
14688;SDS011;7432;48.728;9.154;2024-03-02T11:35:50;9.87;;;9.07;;
14688;SDS011;7432;48.728;9.154;2024-03-02T11:38:17;9.93;;;9.33;;
14688;SDS011;7432;48.728;9.154;2024-03-02T11:40:44;9.20;;;8.70;;
14688;SDS011;7432;48.728;9.154;2024-03-02T11:43:10;8.93;;;8.50;;
14688;SDS011;7432;48.728;9.154;2024-03-02T11:45:37;8.57;;;8.17;;
14688;SDS011;7432;48.728;9.154;2024-03-02T11:48:05;9.17;;;8.67;;
14688;SDS011;7432;48.728;9.154;2024-03-02T11:50:33;9.60;;;9.00;;
14688;SDS011;7432;48.728;9.154;2024-03-02T11:53:03;9.40;;;8.80;;
14688;SDS011;7432;48.728;9.154;2024-03-02T11:55:32;9.13;;;8.57;;
14688;SDS011;7432;48.728;9.154;2024-03-02T11:58:01;9.57;;;9.07;;
14688;SDS011;7432;48.728;9.154;2024-03-02T12:00:28;10.10;;;9.50;;
14688;SDS011;7432;48.728;9.154;2024-03-02T12:02:59;9.50;;;8.90;;
14688;SDS011;7432;48.728;9.154;2024-03-02T12:05:26;9.23;;;8.63;;
14688;SDS011;7432;48.728;9.154;2024-03-02T12:07:55;8.33;;;7.93;;
14688;SDS011;7432;48.728;9.154;2024-03-02T12:10:23;9.27;;;8.77;;
14688;SDS011;7432;48.728;9.154;2024-03-02T12:12:54;8.90;;;8.33;;
14688;SDS011;7432;48.728;9.154;2024-03-02T12:15:22;8.70;;;8.20;;
14688;SDS011;7432;48.728;9.154;2024-03-02T12:17:52;8.50;;;8.10;;
14688;SDS011;7432;48.728;9.154;2024-03-02T12:20:19;8.43;;;7.97;;
14688;SDS011;7432;48.728;9.154;2024-03-02T12:22:46;8.80;;;8.30;;
14688;SDS011;7432;48.728;9.154;2024-03-02T12:25:12;8.97;;;8.47;;
14688;SDS011;7432;48.728;9.154;2024-03-02T12:27:40;9.10;;;8.60;;
14688;SDS011;7432;48.728;9.154;2024-03-02T12:30:07;8.63;;;8.13;;
14688;SDS011;7432;48.728;9.154;2024-03-02T12:32:35;9.20;;;8.70;;
14688;SDS011;7432;48.728;9.154;2024-03-02T12:35:03;9.00;;;8.47;;
14688;SDS011;7432;48.728;9.154;2024-03-02T12:37:30;9.03;;;8.53;;
14688;SDS011;7432;48.728;9.154;2024-03-02T12:39:56;9.80;;;9.30;;
14688;SDS011;7432;48.728;9.154;2024-03-02T12:42:23;8.80;;;8.30;;
14688;SDS011;7432;48.728;9.154;2024-03-02T12:44:52;8.80;;;8.30;;
14688;SDS011;7432;48.728;9.154;2024-03-02T12:47:19;9.80;;;9.20;;
14688;SDS011;7432;48.728;9.154;2024-03-02T12:49:46;8.80;;;8.40;;
14688;SDS011;7432;48.728;9.154;2024-03-02T12:52:12;8.90;;;8.40;;
14688;SDS011;7432;48.728;9.154;2024-03-02T12:54:39;9.03;;;8.53;;
14688;SDS011;7432;48.728;9.154;2024-03-02T12:57:05;9.37;;;8.87;;
14688;SDS011;7432;48.728;9.154;2024-03-02T12:59:32;9.97;;;9.13;;
14688;SDS011;7432;48.728;9.154;2024-03-02T13:02:00;9.20;;;8.70;;
14688;SDS011;7432;48.728;9.154;2024-03-02T13:04:27;9.47;;;8.97;;
14688;SDS011;7432;48.728;9.154;2024-03-02T13:06:55;9.67;;;9.07;;
14688;SDS011;7432;48.728;9.154;2024-03-02T13:09:22;9.57;;;9.07;;
14688;SDS011;7432;48.728;9.154;2024-03-02T13:11:49;9.53;;;9.03;;
14688;SDS011;7432;48.728;9.154;2024-03-02T13:14:16;9.80;;;9.20;;
14688;SDS011;7432;48.728;9.154;2024-03-02T13:16:42;9.57;;;8.97;;
14688;SDS011;7432;48.728;9.154;2024-03-02T13:19:12;9.73;;;9.13;;
14688;SDS011;7432;48.728;9.154;2024-03-02T13:21:38;9.37;;;8.87;;
14688;SDS011;7432;48.728;9.154;2024-03-02T13:24:05;9.23;;;8.73;;
14688;SDS011;7432;48.728;9.154;2024-03-02T13:26:32;8.90;;;8.40;;
14688;SDS011;7432;48.728;9.154;2024-03-02T13:28:58;9.70;;;9.00;;
14688;SDS011;7432;48.728;9.154;2024-03-02T13:31:25;8.77;;;8.17;;
14688;SDS011;7432;48.728;9.154;2024-03-02T13:33:51;8.80;;;8.27;;
14688;SDS011;7432;48.728;9.154;2024-03-02T13:36:19;9.10;;;8.60;;
14688;SDS011;7432;48.728;9.154;2024-03-02T13:38:45;8.80;;;8.40;;
14688;SDS011;7432;48.728;9.154;2024-03-02T13:41:11;9.33;;;8.73;;
14688;SDS011;7432;48.728;9.154;2024-03-02T13:43:38;9.17;;;8.67;;
14688;SDS011;7432;48.728;9.154;2024-03-02T13:46:05;9.13;;;8.63;;
14688;SDS011;7432;48.728;9.154;2024-03-02T13:48:31;9.00;;;8.50;;
14688;SDS011;7432;48.728;9.154;2024-03-02T13:50:57;9.50;;;9.00;;
14688;SDS011;7432;48.728;9.154;2024-03-02T13:53:25;9.50;;;8.90;;
14688;SDS011;7432;48.728;9.154;2024-03-02T13:55:52;9.77;;;9.17;;
14688;SDS011;7432;48.728;9.154;2024-03-02T13:58:19;9.10;;;8.60;;
14688;SDS011;7432;48.728;9.154;2024-03-02T14:00:46;9.23;;;8.63;;
14688;SDS011;7432;48.728;9.154;2024-03-02T14:03:13;9.57;;;9.07;;
14688;SDS011;7432;48.728;9.154;2024-03-02T14:05:39;9.50;;;9.00;;
14688;SDS011;7432;48.728;9.154;2024-03-02T14:08:06;9.70;;;9.20;;
14688;SDS011;7432;48.728;9.154;2024-03-02T14:10:33;9.30;;;8.80;;
14688;SDS011;7432;48.728;9.154;2024-03-02T14:13:00;9.67;;;9.07;;
14688;SDS011;7432;48.728;9.154;2024-03-02T14:15:27;8.33;;;7.93;;
14688;SDS011;7432;48.728;9.154;2024-03-02T14:17:55;9.20;;;8.70;;
14688;SDS011;7432;48.728;9.154;2024-03-02T14:20:21;9.53;;;8.90;;
14688;SDS011;7432;48.728;9.154;2024-03-02T14:22:48;9.40;;;8.90;;
14688;SDS011;7432;48.728;9.154;2024-03-02T14:25:15;9.40;;;8.90;;
14688;SDS011;7432;48.728;9.154;2024-03-02T14:27:43;9.30;;;8.80;;
14688;SDS011;7432;48.728;9.154;2024-03-02T14:30:10;9.63;;;9.13;;
14688;SDS011;7432;48.728;9.154;2024-03-02T14:32:37;9.43;;;8.83;;
14688;SDS011;7432;48.728;9.154;2024-03-02T14:35:04;9.23;;;8.73;;
14688;SDS011;7432;48.728;9.154;2024-03-02T14:37:31;9.20;;;8.60;;
14688;SDS011;7432;48.728;9.154;2024-03-02T14:39:57;9.20;;;8.70;;
14688;SDS011;7432;48.728;9.154;2024-03-02T14:42:24;9.30;;;8.83;;
14688;SDS011;7432;48.728;9.154;2024-03-02T14:44:51;9.47;;;8.87;;
14688;SDS011;7432;48.728;9.154;2024-03-02T14:47:18;9.20;;;8.80;;